createdAt,value
2023-03-29T00:01:35.910Z,0.59
2023-03-29T00:05:21.952Z,0.59
2023-03-29T00:09:20.226Z,0.59
2023-03-29T00:13:20.273Z,0.59
2023-03-29T00:17:20.749Z,0.59
2023-03-29T00:21:20.348Z,0.59
2023-03-29T00:25:20.224Z,0.59
2023-03-29T00:29:20.069Z,0.59
2023-03-29T00:33:20.454Z,0.59
2023-03-29T00:37:20.472Z,0.59
2023-03-29T00:41:20.560Z,0.59
2023-03-29T00:45:20.668Z,0.59
2023-03-29T00:49:20.927Z,0.59
2023-03-29T00:53:20.898Z,0.59
2023-03-29T00:57:20.355Z,0.59
2023-03-29T01:01:23.966Z,0.59
2023-03-29T01:05:21.100Z,0.59
2023-03-29T01:09:20.002Z,0.59
2023-03-29T01:13:20.405Z,0.59
2023-03-29T01:17:20.792Z,0.59
2023-03-29T01:21:20.621Z,0.59
2023-03-29T01:25:20.796Z,0.59
2023-03-29T01:29:20.635Z,0.59
2023-03-29T01:33:20.640Z,0.59
2023-03-29T01:37:20.431Z,0.59
2023-03-29T01:41:20.313Z,0.59
2023-03-29T01:45:20.367Z,0.59
2023-03-29T01:49:20.712Z,0.59
2023-03-29T01:53:20.778Z,0.59
2023-03-29T01:57:21.062Z,0.59
2023-03-29T02:01:25.151Z,0.59
2023-03-29T02:05:20.964Z,0.59
2023-03-29T02:09:20.440Z,0.59
2023-03-29T02:13:20.328Z,0.59
2023-03-29T02:17:20.956Z,0.59
2023-03-29T02:21:20.836Z,0.59
2023-03-29T02:25:20.797Z,0.59
2023-03-29T02:29:20.950Z,0.59
2023-03-29T02:33:21.360Z,0.59
2023-03-29T02:37:20.413Z,0.59
2023-03-29T02:41:20.379Z,0.59
2023-03-29T02:45:20.558Z,0.59
2023-03-29T02:49:20.800Z,0.59
2023-03-29T02:53:20.937Z,0.59
2023-03-29T02:57:21.087Z,0.59
2023-03-29T03:01:26.222Z,0.59
2023-03-29T03:05:21.125Z,0.59
2023-03-29T03:09:20.579Z,0.59
2023-03-29T03:13:20.956Z,0.59
2023-03-29T03:17:21.306Z,0.59
2023-03-29T03:21:21.137Z,0.59
2023-03-29T03:25:19.928Z,0.59
2023-03-29T03:29:20.149Z,0.59
2023-03-29T03:33:20.579Z,0.59
2023-03-29T03:37:20.426Z,0.59
2023-03-29T03:41:24.158Z,0.59
2023-03-29T03:45:20.734Z,0.59
2023-03-29T03:49:20.825Z,0.59
2023-03-29T03:53:20.813Z,0.59
2023-03-29T03:57:20.278Z,0.59
2023-03-29T04:01:23.556Z,0.59
2023-03-29T04:05:20.893Z,0.59
2023-03-29T04:09:20.656Z,0.59
2023-03-29T04:13:20.825Z,0.59
2023-03-29T04:17:21.157Z,0.59
2023-03-29T04:25:20.145Z,0.59
2023-03-29T04:29:20.494Z,0.59
2023-03-29T04:33:21.202Z,0.59
2023-03-29T04:37:20.595Z,0.59
2023-03-29T04:41:20.707Z,0.59
2023-03-29T04:45:21.072Z,0.59
2023-03-29T04:49:21.086Z,0.59
2023-03-29T04:53:20.958Z,0.59
2023-03-29T04:57:20.691Z,0.59
2023-03-29T05:01:24.306Z,0.59
2023-03-29T05:05:21.032Z,0.59
2023-03-29T05:09:21.161Z,0.59
2023-03-29T05:13:21.025Z,0.59
2023-03-29T05:17:21.424Z,0.59
2023-03-29T05:21:21.071Z,0.59
2023-03-29T05:25:20.468Z,0.59
2023-03-29T05:29:20.433Z,0.59
2023-03-29T05:33:20.908Z,0.59
2023-03-29T05:37:20.940Z,0.59
2023-03-29T05:41:27.160Z,0.59
2023-03-29T05:45:21.099Z,0.59
2023-03-29T05:49:20.043Z,0.59
2023-03-29T05:53:20.402Z,0.59
2023-03-29T05:57:20.673Z,0.59
2023-03-29T06:01:26.591Z,0.59
2023-03-29T06:05:21.662Z,0.59
2023-03-29T06:09:20.544Z,0.59
2023-03-29T06:13:20.818Z,0.59
2023-03-29T06:17:21.176Z,0.59
2023-03-29T06:21:20.806Z,0.59
2023-03-29T06:25:20.847Z,0.59
2023-03-29T06:29:23.715Z,0.59
2023-03-29T06:33:20.342Z,0.59
2023-03-29T06:37:20.142Z,0.59
2023-03-29T06:41:21.068Z,0.59
2023-03-29T06:45:23.807Z,0.59
2023-03-29T06:49:20.964Z,0.59
2023-03-29T06:53:20.894Z,0.59
2023-03-29T06:57:21.417Z,0.59
2023-03-29T07:01:25.539Z,0.3
2023-03-29T07:05:20.564Z,0.64
2023-03-29T07:09:20.970Z,0.64
2023-03-29T07:13:20.479Z,0.89
2023-03-29T07:17:21.329Z,1.07
2023-03-29T07:21:20.287Z,1.07
2023-03-29T07:25:20.337Z,1.24
2023-03-29T07:29:20.428Z,1.39
2023-03-29T07:33:21.492Z,1.39
2023-03-29T07:37:20.959Z,1.56
2023-03-29T07:41:21.257Z,1.71
2023-03-29T07:45:26.867Z,1.71
2023-03-29T07:49:22.198Z,1.77
2023-03-29T07:53:20.393Z,1.93
2023-03-29T07:57:20.454Z,1.93
2023-03-29T08:01:31.390Z,1.98
2023-03-29T08:05:33.520Z,2.07
2023-03-29T08:09:20.735Z,2.07
2023-03-29T08:13:21.362Z,2.17
2023-03-29T08:17:21.008Z,2.28
2023-03-29T08:21:20.663Z,2.28
2023-03-29T08:25:20.738Z,2.29
2023-03-29T08:29:20.658Z,2.51
2023-03-29T08:33:25.598Z,2.51
2023-03-29T08:37:21.042Z,2.52
2023-03-29T08:41:20.172Z,2.68
2023-03-29T08:45:20.227Z,2.68
2023-03-29T08:49:20.410Z,2.81
2023-03-29T08:53:20.690Z,2.92
2023-03-29T08:57:20.946Z,2.92
2023-03-29T09:01:23.996Z,2.81
2023-03-29T09:05:20.776Z,2.72
2023-03-29T09:09:20.612Z,2.72
2023-03-29T09:13:22.955Z,2.96
2023-03-29T09:17:20.659Z,3.03
2023-03-29T09:21:21.073Z,3.03
2023-03-29T09:25:20.742Z,3.29
2023-03-29T09:29:21.193Z,2.88
2023-03-29T09:33:21.328Z,2.88
2023-03-29T09:37:20.396Z,2.51
2023-03-29T09:41:24.419Z,2.77
2023-03-29T09:45:37.618Z,2.77
2023-03-29T09:49:20.840Z,3.05
2023-03-29T09:53:20.735Z,2.71
2023-03-29T09:57:21.246Z,2.71
2023-03-29T10:01:24.394Z,2.94
2023-03-29T10:05:20.777Z,2.99
2023-03-29T10:09:20.504Z,2.99
2023-03-29T10:13:20.770Z,3.08
2023-03-29T10:17:21.586Z,2.91
2023-03-29T10:21:23.738Z,2.91
2023-03-29T10:25:20.025Z,2.58
2023-03-29T10:29:20.078Z,2.69
2023-03-29T10:33:20.894Z,2.69
2023-03-29T10:37:20.418Z,2.63
2023-03-29T10:41:20.552Z,2.46
2023-03-29T10:45:20.541Z,2.46
2023-03-29T10:49:20.683Z,2.43
2023-03-29T10:53:20.743Z,2.47
2023-03-29T10:57:22.944Z,2.47
2023-03-29T11:01:26.808Z,2.31
2023-03-29T11:05:21.356Z,2.28
2023-03-29T11:09:20.624Z,2.28
2023-03-29T11:13:34.240Z,2.31
2023-03-29T11:17:21.028Z,2.32
2023-03-29T11:21:24.377Z,2.32
2023-03-29T11:25:20.877Z,2.71
2023-03-29T11:29:20.851Z,2.48
2023-03-29T11:33:20.496Z,2.48
2023-03-29T11:37:20.445Z,2.55
2023-03-29T11:41:20.644Z,3.03
2023-03-29T11:45:20.834Z,3.03
2023-03-29T11:49:20.750Z,3.46
2023-03-29T11:53:20.875Z,3.17
2023-03-29T11:57:21.003Z,3.17
2023-03-29T12:01:21.063Z,3.46
2023-03-29T12:05:20.256Z,3.69
2023-03-29T12:09:20.057Z,3.69
2023-03-29T12:13:20.058Z,3.74
2023-03-29T12:17:20.939Z,3.66
2023-03-29T12:21:20.626Z,3.66
2023-03-29T12:25:23.325Z,4.72
2023-03-29T12:29:20.681Z,4.48
2023-03-29T12:33:20.944Z,4.48
2023-03-29T12:37:20.671Z,3.33
2023-03-29T12:41:20.539Z,3.57
2023-03-29T12:45:20.745Z,3.57
2023-03-29T12:49:21.242Z,2.99
2023-03-29T12:53:20.691Z,2.58
2023-03-29T12:57:21.491Z,2.58
2023-03-29T13:01:28.273Z,3.15
2023-03-29T13:05:20.627Z,2.81
2023-03-29T13:09:20.372Z,2.81
2023-03-29T13:13:20.483Z,2.8
2023-03-29T13:17:34.913Z,2.72
2023-03-29T13:21:20.818Z,2.72
2023-03-29T13:25:20.960Z,2.8
2023-03-29T13:29:21.158Z,2.88
2023-03-29T13:33:21.143Z,2.88
2023-03-29T13:37:21.561Z,2.78
2023-03-29T13:41:20.061Z,2.72
2023-03-29T13:45:20.112Z,2.72
2023-03-29T13:49:25.116Z,2.75
2023-03-29T13:53:20.407Z,2.78
2023-03-29T13:57:21.602Z,2.78
2023-03-29T14:01:24.435Z,2.86
2023-03-29T14:05:20.983Z,2.75
2023-03-29T14:09:21.057Z,2.75
2023-03-29T14:13:21.235Z,2.66
2023-03-29T14:17:21.186Z,2.72
2023-03-29T14:21:20.231Z,2.72
2023-03-29T14:25:20.520Z,2.63
2023-03-29T14:29:21.107Z,2.65
2023-03-29T14:33:21.427Z,2.65
2023-03-29T14:37:22.318Z,2.8
2023-03-29T14:41:21.410Z,2.71
2023-03-29T14:45:20.314Z,2.71
2023-03-29T14:49:20.464Z,2.62
2023-03-29T14:53:22.074Z,2.83
2023-03-29T14:57:21.371Z,2.83
2023-03-29T15:01:27.981Z,2.81
2023-03-29T15:05:21.548Z,2.99
2023-03-29T15:09:37.965Z,2.99
2023-03-29T15:13:20.882Z,2.99
2023-03-29T15:17:22.986Z,2.99
2023-03-29T15:21:20.375Z,2.99
2023-03-29T15:25:20.747Z,2.99
2023-03-29T15:29:20.697Z,2.99
2023-03-29T15:33:21.031Z,2.99
2023-03-29T15:37:21.144Z,2.99
2023-03-29T15:41:23.999Z,2.99
2023-03-29T15:45:20.482Z,2.99
2023-03-29T15:49:20.365Z,2.99
2023-03-29T15:53:36.891Z,2.99
2023-03-29T15:57:22.276Z,2.99
2023-03-29T16:01:23.941Z,2.99
2023-03-29T16:05:20.487Z,2.99
2023-03-29T16:09:20.644Z,2.99
2023-03-29T16:13:20.486Z,0.65
2023-03-29T16:17:21.404Z,0.65
2023-03-29T16:21:23.577Z,0.65
2023-03-29T16:25:20.710Z,0.65
2023-03-29T16:29:20.478Z,0.65
2023-03-29T16:33:23.994Z,0.65
2023-03-29T16:37:21.201Z,0.65
2023-03-29T16:41:20.679Z,0.65
2023-03-29T16:45:20.786Z,0.65
2023-03-29T16:49:21.027Z,0.65
2023-03-29T16:53:20.162Z,0.65
2023-03-29T16:57:21.965Z,0.65
2023-03-29T17:01:23.429Z,0.65
2023-03-29T17:05:21.119Z,0.65
2023-03-29T17:09:20.590Z,0.65
2023-03-29T17:13:21.070Z,0.65
2023-03-29T17:17:22.011Z,0.65
2023-03-29T17:21:21.000Z,0.55
2023-03-29T17:25:20.851Z,0.55
2023-03-29T17:29:20.694Z,0.55
2023-03-29T17:33:22.477Z,0.55
2023-03-29T17:37:21.536Z,0.55
2023-03-29T17:41:20.161Z,0.55
2023-03-29T17:45:20.079Z,0.55
2023-03-29T17:49:23.037Z,0.55
2023-03-29T17:53:20.116Z,0.55
2023-03-29T17:57:20.985Z,0.55
2023-03-29T18:01:27.637Z,0.55
2023-03-29T18:05:20.191Z,0.55
2023-03-29T18:09:20.445Z,0.55
2023-03-29T18:13:20.476Z,0.55
2023-03-29T18:17:21.696Z,0.55
2023-03-29T18:21:20.658Z,0.55
2023-03-29T18:25:21.046Z,0.55
2023-03-29T18:29:21.373Z,0.55
2023-03-29T18:33:20.708Z,0.55
2023-03-29T18:37:21.534Z,0.55
2023-03-29T18:41:22.502Z,0.55
2023-03-29T18:45:20.868Z,0.55
2023-03-29T18:49:21.053Z,0.55
2023-03-29T18:53:20.988Z,0.55
2023-03-29T18:57:22.145Z,0.55
2023-03-29T19:01:23.996Z,0.55
2023-03-29T19:05:23.117Z,0.55
2023-03-29T19:09:20.051Z,0.55
2023-03-29T19:13:21.010Z,0.55
2023-03-29T19:17:20.459Z,0.55
2023-03-29T19:21:20.457Z,0.55
2023-03-29T19:25:20.256Z,0.55
2023-03-29T19:29:20.278Z,0.55
2023-03-29T19:33:20.442Z,0.55
2023-03-29T19:37:21.320Z,0.55
2023-03-29T19:41:20.557Z,0.55
2023-03-29T19:45:20.964Z,0.55
2023-03-29T19:49:30.777Z,0.55
2023-03-29T19:53:20.097Z,0.55
2023-03-29T19:57:21.806Z,0.55
2023-03-29T20:01:26.607Z,0.55
2023-03-29T20:05:20.938Z,0.55
2023-03-29T20:09:20.587Z,0.55
2023-03-29T20:13:31.453Z,0.55
2023-03-29T20:17:21.176Z,0.55
2023-03-29T20:21:20.975Z,0.55
2023-03-29T20:25:20.136Z,0.55
2023-03-29T20:29:20.069Z,0.55
2023-03-29T20:33:21.158Z,0.55
2023-03-29T20:37:21.225Z,0.55
2023-03-29T20:41:20.350Z,0.55
2023-03-29T20:45:20.496Z,0.55
2023-03-29T20:49:20.967Z,0.55
2023-03-29T20:53:20.984Z,0.55
2023-03-29T20:57:20.602Z,0.55
2023-03-29T21:01:23.723Z,0.55
2023-03-29T21:05:20.492Z,0.55
2023-03-29T21:09:21.064Z,0.55
2023-03-29T21:13:19.889Z,0.55
2023-03-29T21:17:20.854Z,0.55
2023-03-29T21:21:20.403Z,0.55
2023-03-29T21:25:20.565Z,0.55
2023-03-29T21:29:20.699Z,0.55
2023-03-29T21:33:21.371Z,0.55
2023-03-29T21:37:21.120Z,0.55
2023-03-29T21:41:20.104Z,0.55
2023-03-29T21:45:20.308Z,0.55
2023-03-29T21:49:20.344Z,0.55
2023-03-29T21:53:20.643Z,0.55
2023-03-29T21:57:20.862Z,0.55
2023-03-29T22:01:22.947Z,0.55
2023-03-29T22:05:34.198Z,0.55
2023-03-29T22:09:20.127Z,0.55
2023-03-29T22:13:20.555Z,0.55
2023-03-29T22:17:21.631Z,0.55
2023-03-29T22:21:21.128Z,0.55
2023-03-29T22:25:20.178Z,0.55
2023-03-29T22:29:20.538Z,0.55
2023-03-29T22:33:21.059Z,0.55
2023-03-29T22:37:21.140Z,0.55
2023-03-29T22:41:21.119Z,0.55
2023-03-29T22:45:20.099Z,0.55
2023-03-29T22:49:20.827Z,0.55
2023-03-29T22:53:21.289Z,0.55
2023-03-29T22:57:21.547Z,0.55
2023-03-29T23:01:24.198Z,0.55
2023-03-29T23:05:21.624Z,0.55
2023-03-29T23:09:20.275Z,0.55
2023-03-29T23:13:20.543Z,0.55
2023-03-29T23:17:20.922Z,0.55
2023-03-29T23:21:20.986Z,0.55
2023-03-29T23:25:20.805Z,0.55
2023-03-29T23:29:20.813Z,0.55
2023-03-29T23:33:21.342Z,0.55
2023-03-29T23:37:20.174Z,0.55
2023-03-29T23:41:20.459Z,0.55
2023-03-29T23:45:20.652Z,0.55
2023-03-29T23:49:21.254Z,0.55
2023-03-29T23:53:21.013Z,0.55
2023-03-29T23:57:20.533Z,0.55
